Time;durP1;ratioP1;P1;durP2;ratioP2;P2;SDS_P1;SDS_P2;PMS_P1;PMS_P2;Temp;Humidity;BMP_temperature;BMP_pressure;BME280_temperature;BME280_humidity;BME280_pressure;Samples;Min_cycle;Max_cycle;Signal;HPM_P1;HPM_P2
2022/07/22 00:00:59;;;;;;;4.47;4.07;;;;;;;20.63;58.82;95999.16;5072914;28;20086;-70
2022/07/22 00:03:24;;;;;;;5.45;4.90;;;;;;;20.63;59.33;96002.69;5072642;28;20029;-70
2022/07/22 00:05:50;;;;;;;6.38;5.57;;;;;;;20.55;58.88;95995.63;5073062;28;20510;-69
2022/07/22 00:08:15;;;;;;;5.65;4.80;;;;;;;20.49;60.93;96000.94;5088252;28;20031;-69
2022/07/22 00:10:41;;;;;;;5.55;4.60;;;;;;;20.42;61.13;96000.91;5067395;28;20025;-69
2022/07/22 00:13:06;;;;;;;5.63;4.50;;;;;;;20.43;59.66;95997.19;5065765;28;20070;-69
2022/07/22 00:15:32;;;;;;;5.13;4.63;;;;;;;20.39;60.04;96006.63;5070011;28;20059;-70
2022/07/22 00:17:57;;;;;;;4.68;4.28;;;;;;;20.34;59.29;95996.56;5064171;28;20060;-70
2022/07/22 00:20:23;;;;;;;4.60;4.20;;;;;;;20.40;58.54;95998.44;5072630;28;20556;-70
2022/07/22 00:22:48;;;;;;;5.30;4.82;;;;;;;20.40;58.92;95998.44;5067849;28;20047;-69
2022/07/22 00:25:14;;;;;;;5.10;4.70;;;;;;;20.39;59.30;95996.78;5061425;28;20414;-69
2022/07/22 00:27:39;;;;;;;4.80;4.40;;;;;;;20.39;59.50;95994.13;5072168;28;20021;-70
2022/07/22 00:30:05;;;;;;;5.25;4.65;;;;;;;20.28;60.61;95995.50;5069938;28;20027;-70
2022/07/22 00:32:31;;;;;;;5.20;4.80;;;;;;;20.25;60.34;95995.03;5071928;28;20495;-70
2022/07/22 00:34:56;;;;;;;5.05;4.57;;;;;;;20.23;59.74;95995.25;5072297;28;20633;-69
2022/07/22 00:37:21;;;;;;;5.95;4.88;;;;;;;20.17;60.36;95988.00;5069680;28;20418;-69
2022/07/22 00:39:50;;;;;;;5.45;4.95;;;;;;;20.13;60.33;95981.38;5050264;28;20492;-70
2022/07/22 00:42:15;;;;;;;5.70;4.78;;;;;;;20.08;62.27;95978.50;5055629;28;20086;-70
2022/07/22 00:44:42;;;;;;;5.07;4.55;;;;;;;20.14;61.34;95977.69;5070434;28;20032;-70
2022/07/22 00:47:07;;;;;;;4.93;4.53;;;;;;;20.10;60.88;95974.56;5068984;28;20104;-70
2022/07/22 00:49:33;;;;;;;4.93;4.50;;;;;;;19.99;61.39;95970.59;5069893;28;20091;-70
2022/07/22 00:51:58;;;;;;;4.93;4.53;;;;;;;19.94;62.73;95978.38;5057571;28;20238;-70
2022/07/22 00:54:24;;;;;;;7.75;4.80;;;;;;;19.85;61.79;95984.88;5062091;28;20020;-71
2022/07/22 00:56:49;;;;;;;6.05;4.95;;;;;;;19.80;61.68;95976.59;5066693;28;20083;-70
2022/07/22 00:59:15;;;;;;;5.38;4.82;;;;;;;19.78;61.22;95974.13;5070249;28;20017;-70
2022/07/22 01:01:41;;;;;;;4.53;4.22;;;;;;;19.75;61.16;95969.97;5052670;28;20123;-70
2022/07/22 01:04:07;;;;;;;4.85;4.45;;;;;;;19.73;61.51;95980.03;5069984;28;20024;-69
2022/07/22 01:06:32;;;;;;;7.97;4.57;;;;;;;19.69;61.43;95970.75;5060809;28;20025;-70
2022/07/22 01:08:58;;;;;;;4.90;4.50;;;;;;;19.74;61.58;95972.84;5066031;28;20389;-69
2022/07/22 01:11:25;;;;;;;5.28;4.47;;;;;;;19.74;62.01;95973.66;5060062;28;20504;-70
2022/07/22 01:13:51;;;;;;;6.68;4.78;;;;;;;19.70;61.79;95971.59;5065249;28;20085;-70
2022/07/22 01:16:18;;;;;;;5.03;4.60;;;;;;;19.64;61.63;95969.69;5064409;28;20063;-71
2022/07/22 01:18:44;;;;;;;5.20;4.70;;;;;;;19.59;63.92;95965.75;5068322;28;20387;-70
2022/07/22 01:21:11;;;;;;;5.22;4.35;;;;;;;19.60;63.02;95969.25;5085042;28;20074;-70
2022/07/22 01:23:37;;;;;;;5.30;4.80;;;;;;;19.56;64.37;95959.94;5073587;28;20364;-70
2022/07/22 01:26:03;;;;;;;5.50;4.60;;;;;;;19.58;64.21;95966.75;5065895;28;20031;-70
2022/07/22 01:28:29;;;;;;;4.82;4.43;;;;;;;19.56;63.45;95963.47;5077104;28;20012;-70
2022/07/22 01:30:54;;;;;;;5.30;4.90;;;;;;;19.57;63.82;95965.13;5069366;28;20450;-70
2022/07/22 01:33:21;;;;;;;5.82;4.70;;;;;;;19.53;63.20;95966.53;5073286;28;20464;-70
2022/07/22 01:35:47;;;;;;;5.10;4.60;;;;;;;19.49;63.39;95961.75;5091519;28;20020;-70
2022/07/22 01:38:13;;;;;;;5.55;4.63;;;;;;;19.50;63.17;95966.06;5091137;28;20119;-70
2022/07/22 01:40:40;;;;;;;5.68;4.90;;;;;;;19.50;63.24;95960.72;5084662;28;20024;-70
2022/07/22 01:43:06;;;;;;;6.00;4.97;;;;;;;19.45;63.71;95956.78;5089284;28;20031;-70
2022/07/22 01:45:32;;;;;;;5.35;4.93;;;;;;;19.35;64.62;95961.63;5091553;28;20394;-70
2022/07/22 01:47:58;;;;;;;6.00;4.80;;;;;;;19.29;65.09;95962.38;5091264;28;20028;-70
2022/07/22 01:50:23;;;;;;;5.30;4.85;;;;;;;19.25;66.88;95964.63;5090109;28;20031;-71
2022/07/22 01:52:50;;;;;;;4.88;4.47;;;;;;;19.21;65.38;95975.84;5082979;28;20032;-70
2022/07/22 01:55:15;;;;;;;5.05;4.60;;;;;;;19.28;64.16;95971.41;5071976;28;20034;-70
2022/07/22 01:57:41;;;;;;;5.45;5.00;;;;;;;19.29;64.29;95967.72;5081300;28;20049;-70
2022/07/22 02:00:09;;;;;;;5.18;4.78;;;;;;;19.32;64.27;95964.66;5080516;28;20020;-70
2022/07/22 02:02:35;;;;;;;5.40;4.85;;;;;;;19.31;65.01;95963.00;5080795;28;20416;-71
2022/07/22 02:05:00;;;;;;;6.43;5.22;;;;;;;19.25;65.58;95969.97;5084039;28;20020;-70
2022/07/22 02:07:26;;;;;;;4.55;4.15;;;;;;;19.17;65.30;95965.56;5090931;28;20509;-70
2022/07/22 02:09:52;;;;;;;5.70;5.18;;;;;;;19.13;65.56;95964.28;5083034;28;20029;-70
2022/07/22 02:12:18;;;;;;;5.65;5.15;;;;;;;19.11;65.79;95960.97;5090670;28;20041;-70
2022/07/22 02:14:43;;;;;;;5.28;4.78;;;;;;;19.13;65.78;95966.97;5090471;28;20055;-70
2022/07/22 02:17:09;;;;;;;6.28;4.70;;;;;;;19.03;67.12;95963.75;5090411;28;20023;-70
2022/07/22 02:19:34;;;;;;;5.05;4.65;;;;;;;18.96;66.90;95960.16;5081066;28;20066;-70
2022/07/22 02:22:00;;;;;;;5.30;4.90;;;;;;;18.94;66.72;95959.53;5080782;28;20111;-70
2022/07/22 02:24:25;;;;;;;5.15;4.70;;;;;;;18.92;67.99;95958.91;5061291;28;20060;-70
2022/07/22 02:26:50;;;;;;;6.13;4.78;;;;;;;18.87;66.92;95970.94;5065847;28;20170;-70
2022/07/22 02:29:16;;;;;;;5.15;4.75;;;;;;;18.83;66.74;95961.66;5074312;28;20034;-70
2022/07/22 02:31:41;;;;;;;9.20;5.68;;;;;;;18.94;66.66;95968.34;5071286;28;20028;-70
2022/07/22 02:34:07;;;;;;;5.82;4.60;;;;;;;18.92;66.61;95961.56;5085720;28;20489;-70
2022/07/22 02:36:32;;;;;;;5.43;4.93;;;;;;;18.91;66.61;95963.41;5059594;28;20021;-70
2022/07/22 02:38:58;;;;;;;5.28;4.80;;;;;;;18.81;67.00;95966.34;5066404;28;20035;-70
2022/07/22 02:41:23;;;;;;;5.25;4.80;;;;;;;18.79;67.01;95965.72;5069745;28;20020;-70
2022/07/22 02:43:49;;;;;;;5.60;5.03;;;;;;;18.75;67.46;95959.91;5063299;28;20099;-70
2022/07/22 02:46:15;;;;;;;5.82;5.22;;;;;;;18.74;68.10;95966.28;5060356;28;20013;-70
2022/07/22 02:48:40;;;;;;;5.82;5.30;;;;;;;18.77;68.08;95959.75;5067629;28;20020;-70
2022/07/22 02:51:05;;;;;;;5.63;5.13;;;;;;;18.77;67.75;95951.75;5057100;28;20554;-70
2022/07/22 02:53:31;;;;;;;5.55;4.90;;;;;;;18.73;67.78;95955.81;5068157;28;20445;-70
2022/07/22 02:55:56;;;;;;;5.30;4.80;;;;;;;18.73;67.51;95950.47;5063006;28;20024;-70
2022/07/22 02:58:22;;;;;;;4.68;4.38;;;;;;;18.64;67.55;95946.25;5063495;28;20080;-70
2022/07/22 03:00:47;;;;;;;5.25;4.80;;;;;;;18.57;68.55;95947.00;5078210;28;20107;-70
2022/07/22 03:03:13;;;;;;;4.93;4.53;;;;;;;18.61;68.12;95950.94;5085167;28;20475;-70
2022/07/22 03:05:38;;;;;;;5.80;4.53;;;;;;;18.52;68.67;95953.88;5085483;28;20103;-70
2022/07/22 03:08:03;;;;;;;6.78;5.00;;;;;;;18.45;69.15;95949.31;5088042;28;20422;-70
2022/07/22 03:10:29;;;;;;;6.85;5.40;;;;;;;18.46;69.25;95947.50;5065686;28;20562;-70
2022/07/22 03:12:54;;;;;;;6.53;5.25;;;;;;;18.41;69.83;95947.19;5066604;28;20455;-70
2022/07/22 03:15:19;;;;;;;5.65;5.05;;;;;;;18.33;69.92;95945.44;5087179;28;20065;-70
2022/07/22 03:17:45;;;;;;;5.40;4.80;;;;;;;18.30;69.23;95951.16;5093769;28;20376;-70
2022/07/22 03:20:11;;;;;;;5.68;5.22;;;;;;;18.45;68.78;95951.13;5089878;28;20025;-70
2022/07/22 03:22:37;;;;;;;5.32;4.93;;;;;;;18.39;68.98;95943.88;5072881;28;20012;-70
2022/07/22 03:25:03;;;;;;;5.20;4.80;;;;;;;18.36;68.80;95952.25;5081713;28;20025;-70
2022/07/22 03:27:29;;;;;;;6.97;5.45;;;;;;;18.32;69.09;95952.63;5077081;28;20029;-70
2022/07/22 03:29:54;;;;;;;7.45;5.30;;;;;;;18.25;70.01;95950.88;5082021;28;20031;-70
2022/07/22 03:32:20;;;;;;;5.15;4.70;;;;;;;18.22;71.39;95948.59;5080333;28;20111;-70
2022/07/22 03:34:45;;;;;;;8.93;4.78;;;;;;;18.15;70.62;95954.66;5081595;28;20491;-70
2022/07/22 03:37:10;;;;;;;5.75;5.15;;;;;;;18.11;70.43;95950.69;5090440;28;20016;-70
2022/07/22 03:39:36;;;;;;;5.75;4.93;;;;;;;18.14;71.85;95952.16;5083942;28;20047;-70
2022/07/22 03:42:02;;;;;;;5.63;5.13;;;;;;;18.14;70.89;95955.66;5093356;28;20027;-70
2022/07/22 03:44:27;;;;;;;5.15;4.75;;;;;;;18.12;70.24;95959.50;5081940;28;20016;-70
2022/07/22 03:46:53;;;;;;;5.63;5.13;;;;;;;18.07;70.70;95953.91;5093439;28;20051;-70
2022/07/22 03:49:18;;;;;;;5.88;5.07;;;;;;;18.06;70.31;95955.75;5093490;28;20026;-70
2022/07/22 03:51:43;;;;;;;5.95;5.45;;;;;;;17.98;73.06;95961.13;5091007;28;20016;-70
2022/07/22 03:54:09;;;;;;;6.18;5.15;;;;;;;17.97;71.46;95957.63;5091865;28;20474;-70
2022/07/22 03:56:35;;;;;;;5.68;5.18;;;;;;;17.96;71.08;95958.63;5093138;28;20024;-70
2022/07/22 03:59:00;;;;;;;7.47;5.68;;;;;;;17.84;71.82;95957.44;5089046;28;20031;-70
2022/07/22 04:01:26;;;;;;;5.65;5.15;;;;;;;17.82;71.46;95957.59;5077160;28;20095;-70
2022/07/22 04:03:52;;;;;;;6.75;5.32;;;;;;;17.80;72.26;95961.47;5080276;28;20031;-70
2022/07/22 04:06:17;;;;;;;5.95;5.32;;;;;;;17.74;71.99;95961.16;5065595;28;20029;-70
2022/07/22 04:08:43;;;;;;;6.82;5.38;;;;;;;17.72;71.95;95955.19;5072198;28;20039;-70
2022/07/22 04:11:08;;;;;;;5.78;5.20;;;;;;;17.82;71.45;95962.13;5072768;28;20027;-70
2022/07/22 04:13:33;;;;;;;7.82;5.13;;;;;;;17.89;71.10;95955.88;5064859;28;20035;-70
2022/07/22 04:15:59;;;;;;;5.57;5.07;;;;;;;17.88;70.48;95961.38;5072584;28;20028;-70
2022/07/22 04:18:24;;;;;;;6.93;5.20;;;;;;;17.87;71.28;95960.53;5072376;28;20469;-70
2022/07/22 04:20:50;;;;;;;7.05;5.40;;;;;;;17.84;71.60;95952.94;5072491;28;20123;-70
2022/07/22 04:23:16;;;;;;;5.72;5.22;;;;;;;17.75;71.98;95960.16;5072686;28;20025;-70
2022/07/22 04:25:41;;;;;;;6.82;5.70;;;;;;;17.78;71.99;95958.13;5067863;28;20036;-70
2022/07/22 04:28:07;;;;;;;5.80;5.30;;;;;;;17.83;71.17;95961.91;5069256;28;20510;-70
2022/07/22 04:30:32;;;;;;;6.07;5.35;;;;;;;17.87;71.28;95962.41;5066102;28;20074;-70
2022/07/22 04:32:58;;;;;;;6.05;5.45;;;;;;;17.85;71.61;95949.25;5072453;28;20021;-70
2022/07/22 04:35:24;;;;;;;7.57;5.35;;;;;;;17.89;72.02;95957.72;5061074;28;20021;-70
2022/07/22 04:37:49;;;;;;;6.15;5.55;;;;;;;17.86;72.74;95955.41;5072170;28;20104;-70
2022/07/22 04:40:14;;;;;;;6.75;5.72;;;;;;;17.78;72.88;95952.81;5072379;28;20021;-70
2022/07/22 04:42:40;;;;;;;6.10;5.47;;;;;;;17.77;72.43;95954.66;5072115;28;20479;-70
2022/07/22 04:45:05;;;;;;;6.03;5.35;;;;;;;17.83;71.98;95959.25;5068237;28;20020;-70
2022/07/22 04:47:31;;;;;;;5.78;5.38;;;;;;;17.92;72.28;95957.34;5071896;28;20020;-70
2022/07/22 04:49:56;;;;;;;9.30;5.85;;;;;;;17.92;72.68;95960.00;5068983;28;20479;-70
2022/07/22 04:52:22;;;;;;;7.20;4.97;;;;;;;17.92;73.38;95960.00;5067844;28;20025;-71
2022/07/22 04:54:47;;;;;;;5.57;5.07;;;;;;;17.93;72.72;95956.34;5071447;28;20051;-70
2022/07/22 04:57:12;;;;;;;6.32;5.82;;;;;;;17.85;72.66;95951.09;5071536;28;20526;-70
2022/07/22 04:59:38;;;;;;;8.90;5.40;;;;;;;17.87;72.67;95955.22;5071929;28;20025;-70
2022/07/22 05:02:03;;;;;;;5.97;5.15;;;;;;;17.86;72.69;95952.75;5092226;28;20051;-70
2022/07/22 05:04:29;;;;;;;7.25;5.32;;;;;;;17.93;72.30;95951.00;5085637;28;20032;-70
2022/07/22 05:06:54;;;;;;;5.93;5.30;;;;;;;17.99;71.54;95952.94;5082679;28;20482;-70
2022/07/22 05:09:20;;;;;;;5.50;5.00;;;;;;;18.04;71.36;95953.28;5091160;28;20024;-71
2022/07/22 05:11:45;;;;;;;6.22;5.57;;;;;;;18.11;71.21;95953.34;5073592;28;20539;-70
2022/07/22 05:14:11;;;;;;;9.40;5.57;;;;;;;18.14;71.24;95954.81;5078345;28;20541;-70
2022/07/22 05:16:37;;;;;;;8.32;5.47;;;;;;;18.12;71.28;95955.00;5070768;28;20024;-70
2022/07/22 05:19:04;;;;;;;5.75;5.25;;;;;;;18.14;71.85;95957.50;5077520;28;20081;-70
2022/07/22 05:21:29;;;;;;;6.18;5.63;;;;;;;18.13;72.90;95955.84;5071902;28;20051;-70
2022/07/22 05:23:55;;;;;;;7.90;6.05;;;;;;;18.18;72.50;95958.78;5077071;28;20491;-71
2022/07/22 05:26:20;;;;;;;6.10;5.63;;;;;;;18.29;73.48;95960.16;5072360;28;20017;-70
2022/07/22 05:28:45;;;;;;;6.50;5.95;;;;;;;18.35;74.46;95954.13;5069107;28;20411;-70
2022/07/22 05:31:11;;;;;;;8.93;5.57;;;;;;;18.47;73.55;95955.28;5058953;28;20064;-70
2022/07/22 05:33:36;;;;;;;7.40;6.00;;;;;;;18.64;72.38;95957.75;5068609;28;20029;-71
2022/07/22 05:36:02;;;;;;;9.93;5.75;;;;;;;18.82;71.54;95959.19;5069024;28;20525;-70
2022/07/22 05:38:27;;;;;;;5.97;5.40;;;;;;;18.95;70.81;95959.34;5062755;28;20578;-70
2022/07/22 05:40:53;;;;;;;6.18;5.55;;;;;;;19.10;69.74;95967.31;5069313;28;20028;-70
2022/07/22 05:43:19;;;;;;;6.13;5.53;;;;;;;19.21;68.29;95955.31;5085138;28;20115;-70
2022/07/22 05:45:44;;;;;;;7.80;6.05;;;;;;;19.32;67.69;95962.00;5087162;28;20059;-70
2022/07/22 05:48:09;;;;;;;9.23;5.47;;;;;;;19.53;68.03;95963.00;5080312;28;20159;-71
2022/07/22 05:50:35;;;;;;;8.32;5.72;;;;;;;19.73;67.36;95972.03;5068676;28;20028;-72
2022/07/22 05:53:01;;;;;;;6.82;5.65;;;;;;;19.87;67.02;95959.59;5083191;28;20081;-70
2022/07/22 05:55:26;;;;;;;7.35;6.20;;;;;;;20.01;66.89;95965.06;5086887;28;20027;-71
2022/07/22 05:57:51;;;;;;;7.70;5.30;;;;;;;20.16;66.61;95962.28;5087274;28;20058;-70
2022/07/22 06:00:17;;;;;;;6.55;5.90;;;;;;;20.30;65.70;95965.88;5064109;28;20032;-70
2022/07/22 06:02:42;;;;;;;8.27;6.55;;;;;;;20.40;64.59;95966.34;5076435;28;20017;-71
2022/07/22 06:05:08;;;;;;;9.07;5.95;;;;;;;20.53;65.32;95970.09;5080689;28;20095;-71
2022/07/22 06:07:33;;;;;;;5.85;5.30;;;;;;;20.64;64.69;95961.53;5063349;28;20020;-71
2022/07/22 06:09:58;;;;;;;11.73;5.20;;;;;;;20.78;64.23;95956.22;5070596;28;20103;-70
2022/07/22 06:12:24;;;;;;;6.95;5.53;;;;;;;20.86;63.66;95962.25;5075892;28;20020;-70
2022/07/22 06:14:49;;;;;;;6.32;5.43;;;;;;;20.90;63.24;95960.00;5083863;28;20495;-69
2022/07/22 06:17:14;;;;;;;9.88;6.47;;;;;;;20.94;62.25;95963.13;5088834;28;20192;-69
2022/07/22 06:19:40;;;;;;;7.07;5.75;;;;;;;20.99;61.85;95964.16;5085689;28;20107;-69
2022/07/22 06:22:05;;;;;;;9.00;5.22;;;;;;;21.10;61.69;95968.09;5084806;28;20028;-71
2022/07/22 06:24:31;;;;;;;7.47;6.18;;;;;;;21.15;60.85;95965.66;5087018;28;20027;-74
2022/07/22 06:26:56;;;;;;;6.70;5.45;;;;;;;21.31;60.74;95971.63;5085744;28;20097;-75
2022/07/22 06:29:22;;;;;;;7.25;5.50;;;;;;;21.56;60.66;95973.75;5087918;28;20028;-72
2022/07/22 06:31:47;;;;;;;7.50;5.70;;;;;;;21.75;59.58;95970.28;5087528;28;20491;-70
2022/07/22 06:34:13;;;;;;;7.22;5.35;;;;;;;22.03;59.12;95973.78;5078817;28;20021;-73
2022/07/22 06:36:38;;;;;;;9.00;5.07;;;;;;;22.35;57.54;95976.63;5069736;28;20043;-72
2022/07/22 06:39:04;;;;;;;7.93;5.68;;;;;;;22.73;56.17;95980.47;5069693;28;20028;-74
2022/07/22 06:41:29;;;;;;;8.32;5.47;;;;;;;23.08;56.38;95974.72;5066711;28;20031;-72
2022/07/22 06:43:54;;;;;;;5.70;5.18;;;;;;;23.43;54.75;95978.91;5068000;28;20107;-73
2022/07/22 06:46:20;;;;;;;6.53;4.72;;;;;;;23.69;53.58;95969.03;5066339;28;20032;-73
2022/07/22 06:48:45;;;;;;;8.63;5.22;;;;;;;23.97;52.30;95975.84;5069305;28;20021;-72
2022/07/22 06:51:11;;;;;;;5.70;5.03;;;;;;;24.23;52.65;95974.81;5068087;28;20044;-73
2022/07/22 06:53:36;;;;;;;6.85;5.13;;;;;;;24.60;51.29;95971.31;5061825;28;20484;-73
2022/07/22 06:56:02;;;;;;;5.30;4.82;;;;;;;24.87;50.65;95971.88;5069668;28;20025;-73
2022/07/22 06:58:27;;;;;;;5.68;4.78;;;;;;;25.13;49.28;95977.97;5064632;28;20049;-73
2022/07/22 07:00:53;;;;;;;5.90;4.43;;;;;;;25.40;48.71;95971.38;5082124;28;20040;-73
2022/07/22 07:03:19;;;;;;;7.85;4.65;;;;;;;25.59;47.07;95972.16;5089604;28;20406;-73
2022/07/22 07:05:44;;;;;;;8.68;4.60;;;;;;;25.71;47.36;95972.19;5082021;28;20095;-72
2022/07/22 07:08:10;;;;;;;5.10;4.60;;;;;;;26.11;46.58;95965.31;5089888;28;20064;-72
2022/07/22 07:10:35;;;;;;;8.02;4.78;;;;;;;26.29;45.31;95970.63;5089956;28;20105;-72
2022/07/22 07:13:00;;;;;;;6.15;4.43;;;;;;;26.45;43.92;95969.09;5089865;28;20028;-72
2022/07/22 07:15:27;;;;;;;6.28;4.40;;;;;;;26.53;43.63;95965.22;5058729;28;20112;-72
2022/07/22 07:17:54;;;;;;;5.38;4.85;;;;;;;26.85;42.66;95964.81;5085911;28;20043;-72
2022/07/22 07:20:19;;;;;;;4.65;4.30;;;;;;;27.03;43.24;95963.81;5084023;28;20526;-74
2022/07/22 07:22:45;;;;;;;4.55;4.13;;;;;;;27.40;42.79;95959.91;5074616;28;20048;-71
2022/07/22 07:25:10;;;;;;;4.55;4.07;;;;;;;27.85;41.51;95965.56;5069191;28;20020;-72
2022/07/22 07:27:36;;;;;;;4.40;4.00;;;;;;;28.06;40.99;95960.47;5061882;28;20028;-72
2022/07/22 07:30:03;;;;;;;5.32;4.60;;;;;;;28.09;40.24;95963.50;5053684;28;20051;-72
2022/07/22 07:32:29;;;;;;;6.03;4.13;;;;;;;28.17;41.20;95955.00;5059228;28;20417;-72
2022/07/22 07:34:54;;;;;;;4.85;4.43;;;;;;;28.42;40.65;95961.84;5077354;28;20016;-72
2022/07/22 07:37:19;;;;;;;5.63;4.32;;;;;;;28.81;38.63;95958.31;5079005;28;20028;-72
2022/07/22 07:39:45;;;;;;;5.03;4.63;;;;;;;28.82;37.34;95951.00;5078602;28;20104;-72
2022/07/22 07:42:10;;;;;;;5.18;4.68;;;;;;;28.94;38.16;95956.31;5062587;28;20095;-72
2022/07/22 07:44:36;;;;;;;4.82;4.40;;;;;;;29.37;37.48;95951.88;5076174;28;20032;-72
2022/07/22 07:47:01;;;;;;;4.80;4.30;;;;;;;29.83;35.78;95951.50;5083556;28;20069;-72
2022/07/22 07:49:26;;;;;;;4.30;4.00;;;;;;;29.99;36.06;95946.19;5084448;28;20061;-72
2022/07/22 07:51:52;;;;;;;6.93;4.10;;;;;;;30.04;35.53;95942.75;5086764;28;20028;-72
2022/07/22 07:54:18;;;;;;;5.80;4.30;;;;;;;30.11;35.71;95938.72;5081488;28;20028;-72
2022/07/22 07:56:43;;;;;;;4.13;3.83;;;;;;;30.32;34.37;95933.44;5081459;28;20131;-72
2022/07/22 07:59:08;;;;;;;4.40;4.00;;;;;;;30.27;34.79;95934.22;5072294;28;20450;-72
2022/07/22 08:01:34;;;;;;;4.32;4.03;;;;;;;30.40;34.78;95934.84;5069411;28;20063;-72
2022/07/22 08:03:59;;;;;;;6.85;4.38;;;;;;;30.61;33.33;95941.19;5073887;28;20037;-72
2022/07/22 08:06:25;;;;;;;6.35;4.22;;;;;;;30.43;34.83;95931.59;5071440;28;20028;-72
2022/07/22 08:08:50;;;;;;;4.60;3.83;;;;;;;30.57;34.03;95930.00;5080909;28;20020;-73
2022/07/22 08:11:15;;;;;;;4.28;3.88;;;;;;;30.77;34.11;95924.97;5069960;28;20032;-72
2022/07/22 08:13:41;;;;;;;4.28;3.88;;;;;;;31.05;32.83;95929.13;5083892;28;20024;-72
2022/07/22 08:16:06;;;;;;;8.45;3.58;;;;;;;31.15;31.69;95934.59;5065991;28;20106;-72
2022/07/22 08:18:32;;;;;;;8.55;4.05;;;;;;;31.33;31.30;95924.34;5065381;28;20040;-70
2022/07/22 08:20:57;;;;;;;4.82;4.38;;;;;;;31.22;32.43;95922.69;5067888;28;20082;-71
2022/07/22 08:23:23;;;;;;;4.28;3.88;;;;;;;31.64;31.58;95924.38;5072142;28;20047;-71
2022/07/22 08:25:48;;;;;;;4.38;3.97;;;;;;;31.59;31.83;95916.22;5068389;28;20070;-71
2022/07/22 08:28:14;;;;;;;4.10;3.70;;;;;;;31.59;31.27;95922.44;5054856;28;20480;-72
2022/07/22 08:30:40;;;;;;;4.18;3.78;;;;;;;31.77;32.02;95924.94;5071135;28;20060;-71
2022/07/22 08:33:06;;;;;;;5.68;4.30;;;;;;;32.06;31.08;95917.03;5070523;28;20545;-71
2022/07/22 08:35:32;;;;;;;4.03;3.67;;;;;;;32.10;30.02;95917.28;5065497;28;20428;-71
2022/07/22 08:37:57;;;;;;;4.50;4.20;;;;;;;32.56;29.56;95914.47;5067765;28;20063;-70
2022/07/22 08:40:23;;;;;;;4.20;3.75;;;;;;;32.56;30.73;95914.47;5066905;28;20028;-71
2022/07/22 08:42:49;;;;;;;4.68;3.78;;;;;;;31.99;30.62;95914.59;5058603;28;20035;-71
2022/07/22 08:45:15;;;;;;;4.07;3.40;;;;;;;32.15;31.79;95918.09;5064994;28;20053;-71
2022/07/22 08:47:47;;;;;;;4.03;3.72;;;;;;;32.44;30.15;95922.97;5071664;28;20074;-71
2022/07/22 08:50:13;;;;;;;4.70;4.15;;;;;;;32.57;30.35;95916.09;5061923;28;20032;-71
2022/07/22 08:52:38;;;;;;;8.57;4.25;;;;;;;32.58;31.51;95915.00;5069575;28;20017;-71
2022/07/22 08:55:05;;;;;;;4.60;3.58;;;;;;;32.83;30.94;95915.19;5064310;28;20033;-71
2022/07/22 08:57:31;;;;;;;4.80;4.30;;;;;;;33.05;30.28;95912.13;5075025;28;20040;-72
2022/07/22 08:59:58;;;;;;;5.28;4.28;;;;;;;33.34;29.89;95911.41;5083901;28;20393;-71
2022/07/22 09:02:25;;;;;;;4.40;4.10;;;;;;;33.22;29.11;95909.03;5089209;28;20024;-72
2022/07/22 09:04:56;;;;;;;4.70;4.30;;;;;;;33.09;29.80;95909.63;5077278;28;20036;-71
2022/07/22 09:07:30;;;;;;;7.57;4.05;;;;;;;32.94;30.17;95903.19;5067103;28;20448;-71
2022/07/22 09:09:57;;;;;;;4.60;4.20;;;;;;;33.22;30.41;95902.72;5069410;28;20028;-71
2022/07/22 09:12:23;;;;;;;6.50;4.10;;;;;;;33.32;30.15;95904.59;5049737;28;20060;-71
2022/07/22 09:14:51;;;;;;;5.53;3.75;;;;;;;33.39;29.97;95894.97;5076292;28;20115;-71
2022/07/22 09:17:23;;;;;;;5.75;4.03;;;;;;;33.51;29.25;95886.47;5066390;28;20032;-71
2022/07/22 09:19:49;;;;;;;4.22;3.50;;;;;;;33.60;28.61;95891.31;5061335;28;20406;-71
2022/07/22 09:22:14;;;;;;;4.20;3.80;;;;;;;33.60;29.25;95889.41;5067948;28;20038;-71
2022/07/22 09:24:40;;;;;;;6.20;3.97;;;;;;;33.27;29.60;95891.78;5070989;28;20090;-71
2022/07/22 09:27:06;;;;;;;5.25;3.80;;;;;;;33.41;29.91;95883.81;5070151;28;20021;-71
2022/07/22 09:29:32;;;;;;;4.50;3.92;;;;;;;33.57;28.57;95884.53;5068087;28;20377;-71
2022/07/22 09:31:57;;;;;;;4.10;3.75;;;;;;;33.48;29.06;95878.03;5070642;28;20074;-71
2022/07/22 09:34:28;;;;;;;3.95;3.38;;;;;;;33.89;27.86;95877.69;5065008;28;20029;-71
2022/07/22 09:36:56;;;;;;;4.38;3.85;;;;;;;34.18;28.09;95879.63;5055631;28;20124;-70
2022/07/22 09:39:29;;;;;;;5.00;3.85;;;;;;;34.18;27.62;95873.34;5068920;28;20024;-70
2022/07/22 09:42:00;;;;;;;5.45;3.67;;;;;;;33.91;28.07;95866.47;5066174;28;20115;-69
2022/07/22 09:44:25;;;;;;;4.30;3.67;;;;;;;34.18;27.96;95871.44;5069929;28;20033;-68
2022/07/22 09:46:51;;;;;;;3.70;3.40;;;;;;;33.75;27.91;95871.28;5060029;28;20035;-68
2022/07/22 09:49:38;;;;;;;4.38;3.58;;;;;;;33.83;27.18;95871.47;5070321;28;20483;-69
2022/07/22 09:52:04;;;;;;;3.90;3.60;;;;;;;33.62;29.27;95870.81;5070166;28;20024;-69
2022/07/22 09:54:30;;;;;;;3.88;3.42;;;;;;;34.14;26.88;95868.44;5067579;28;20035;-69
2022/07/22 09:56:56;;;;;;;3.60;3.30;;;;;;;33.76;27.65;95864.72;5062365;28;20087;-69
2022/07/22 09:59:22;;;;;;;4.60;3.63;;;;;;;33.66;28.14;95868.34;5070186;28;20032;-69
2022/07/22 10:01:50;;;;;;;3.67;3.38;;;;;;;33.98;27.39;95859.63;5083290;28;20035;-69
2022/07/22 10:04:20;;;;;;;4.03;3.60;;;;;;;34.15;27.80;95861.06;5068324;28;20036;-69
2022/07/22 10:06:48;;;;;;;3.88;3.50;;;;;;;34.55;26.35;95852.72;5073907;28;20032;-69
2022/07/22 10:09:16;;;;;;;3.67;3.38;;;;;;;34.03;27.57;95857.94;5063325;28;20032;-69
2022/07/22 10:11:45;;;;;;;3.70;3.40;;;;;;;34.27;27.34;95855.22;5079279;28;20555;-69
2022/07/22 10:14:16;;;;;;;3.85;3.50;;;;;;;34.28;27.00;95852.19;5058389;28;20032;-69
2022/07/22 10:16:43;;;;;;;3.47;3.28;;;;;;;34.13;28.20;95853.16;5059681;28;20024;-70
2022/07/22 10:19:10;;;;;;;3.72;3.30;;;;;;;34.51;26.69;95844.28;5068264;28;20042;-69
2022/07/22 10:21:35;;;;;;;4.18;3.70;;;;;;;34.53;27.79;95838.53;5069653;28;20040;-69
2022/07/22 10:24:12;;;;;;;5.28;3.58;;;;;;;34.96;26.41;95843.16;5066050;28;20582;-69
2022/07/22 10:26:47;;;;;;;6.40;3.50;;;;;;;35.07;25.75;95838.38;5063805;28;20047;-68
2022/07/22 10:29:25;;;;;;;4.53;3.65;;;;;;;35.03;25.30;95840.88;5064213;28;20053;-69
2022/07/22 10:32:21;;;;;;;4.25;3.85;;;;;;;34.87;25.11;95834.78;5057302;28;20384;-68
2022/07/22 10:35:00;;;;;;;3.35;2.97;;;;;;;35.32;25.91;95831.69;5068923;28;20032;-69
2022/07/22 10:37:34;;;;;;;6.78;3.45;;;;;;;35.54;25.84;95825.59;5083597;28;20024;-70
2022/07/22 10:40:17;;;;;;;4.97;3.70;;;;;;;35.85;25.02;95818.78;5087243;28;20016;-69
2022/07/22 10:42:57;;;;;;;4.45;3.17;;;;;;;35.61;25.17;95827.97;5084724;28;20016;-69
2022/07/22 10:45:38;;;;;;;4.35;3.72;;;;;;;35.83;25.37;95816.34;5087879;28;20028;-69
2022/07/22 10:48:09;;;;;;;6.35;3.45;;;;;;;35.67;25.64;95817.75;5085643;28;20020;-70
2022/07/22 10:50:37;;;;;;;4.15;3.58;;;;;;;35.87;23.83;95808.34;5083125;28;20094;-69
2022/07/22 10:53:39;;;;;;;4.63;3.67;;;;;;;36.62;24.12;95807.47;5057938;28;20035;-69
2022/07/22 10:56:15;;;;;;;6.57;3.33;;;;;;;36.90;23.77;95802.69;5050294;28;20040;-69
2022/07/22 10:58:44;;;;;;;7.07;3.65;;;;;;;36.58;24.22;95798.22;5073560;28;20816;-69
2022/07/22 11:01:13;;;;;;;4.32;3.70;;;;;;;36.13;23.24;95789.50;5065530;28;20024;-70
2022/07/22 11:03:41;;;;;;;7.30;3.33;;;;;;;35.98;24.59;95782.38;5072562;28;20158;-70
2022/07/22 11:06:30;;;;;;;3.95;3.65;;;;;;;36.35;23.32;95781.66;5069019;28;20792;-70
2022/07/22 11:08:58;;;;;;;7.82;3.58;;;;;;;36.34;23.64;95777.31;5052797;28;20036;-70
2022/07/22 11:11:33;;;;;;;5.20;3.40;;;;;;;36.59;23.79;95773.25;5059732;28;20020;-70
2022/07/22 11:14:00;;;;;;;3.63;3.30;;;;;;;37.62;23.05;95780.19;5069265;28;20032;-69
2022/07/22 11:16:27;;;;;;;10.15;3.58;;;;;;;37.54;21.76;95771.56;5064211;28;20025;-69
2022/07/22 11:18:59;;;;;;;4.05;3.75;;;;;;;37.42;21.85;95769.38;5068102;28;20029;-69
2022/07/22 11:21:26;;;;;;;5.38;3.47;;;;;;;37.55;22.24;95767.69;5078655;28;20024;-69
2022/07/22 11:23:54;;;;;;;5.38;3.40;;;;;;;37.64;21.58;95766.94;5084475;28;20020;-68
2022/07/22 11:26:31;;;;;;;170.07;12.27;;;;;;;37.66;21.22;95761.97;5085472;28;20104;-69
2022/07/22 11:28:57;;;;;;;3.38;3.17;;;;;;;37.59;20.82;95767.88;5077362;28;20069;-69
2022/07/22 11:31:22;;;;;;;4.50;3.50;;;;;;;37.87;20.91;95758.66;5084045;28;20434;-69